Time;durP1;ratioP1;P1;durP2;ratioP2;P2;SDS_P1;SDS_P2;PMS_P1;PMS_P2;Temp;Humidity;BMP_temperature;BMP_pressure;BME280_temperature;BME280_humidity;BME280_pressure;Samples;Min_cycle;Max_cycle;Signal;HPM_P1;HPM_P2
2022/09/06 00:00:23;;;;;;;7.68;6.65;;;;;;;17.49;100.00;101516.06;5045562;28;20061;-74
2022/09/06 00:02:49;;;;;;;8.40;6.43;;;;;;;17.39;100.00;101582.38;5053265;28;20052;-74
2022/09/06 00:05:14;;;;;;;8.95;6.70;;;;;;;17.32;100.00;101600.22;5052824;28;20025;-73
2022/09/06 00:07:40;;;;;;;9.73;6.93;;;;;;;17.30;100.00;101589.75;5053191;28;20035;-73
2022/09/06 00:10:06;;;;;;;8.80;6.78;;;;;;;17.25;100.00;101604.03;5049558;28;20025;-73
2022/09/06 00:12:32;;;;;;;9.60;6.90;;;;;;;17.24;100.00;101631.31;5051972;28;20028;-73
2022/09/06 00:14:57;;;;;;;7.78;6.38;;;;;;;17.22;100.00;101633.13;5053348;28;20373;-73
2022/09/06 00:17:23;;;;;;;9.77;6.93;;;;;;;17.24;100.00;101626.03;5041239;28;20037;-74
2022/09/06 00:19:48;;;;;;;9.95;7.53;;;;;;;17.25;100.00;101635.63;5053218;28;20064;-73
2022/09/06 00:22:13;;;;;;;10.15;8.43;;;;;;;17.23;100.00;101648.91;5052832;28;20035;-74
2022/09/06 00:24:39;;;;;;;12.43;8.57;;;;;;;17.30;100.00;101641.59;5051989;28;20017;-74
2022/09/06 00:27:06;;;;;;;11.25;9.02;;;;;;;17.30;100.00;101638.97;5051006;28;20083;-74
2022/09/06 00:29:31;;;;;;;12.52;9.45;;;;;;;17.27;100.00;101641.72;5052078;28;20052;-74
2022/09/06 00:31:58;;;;;;;10.73;8.13;;;;;;;17.26;100.00;101650.53;5052717;28;20128;-74
2022/09/06 00:34:23;;;;;;;10.25;8.73;;;;;;;17.24;100.00;101655.03;5052406;28;20031;-74
2022/09/06 00:36:48;;;;;;;11.95;8.30;;;;;;;17.35;100.00;101646.69;5046422;28;20135;-74
2022/09/06 00:39:14;;;;;;;12.07;8.82;;;;;;;17.28;100.00;101639.00;5037566;28;20061;-74
2022/09/06 00:41:39;;;;;;;9.93;8.52;;;;;;;17.27;100.00;101641.72;5052148;28;20116;-73
2022/09/06 00:44:05;;;;;;;10.77;9.25;;;;;;;17.35;100.00;101628.25;5051794;28;20079;-73
2022/09/06 00:46:31;;;;;;;10.77;8.30;;;;;;;17.33;100.00;101620.41;5049797;28;20028;-73
2022/09/06 00:49:06;;;;;;;11.20;8.65;;;;;;;17.34;100.00;101618.63;5052039;28;20056;-73
2022/09/06 00:51:33;;;;;;;12.25;8.52;;;;;;;17.29;100.00;101614.38;5051877;28;20017;-73
2022/09/06 00:54:02;;;;;;;9.63;8.63;;;;;;;17.24;100.00;101612.84;5047278;28;20080;-73
2022/09/06 00:56:28;;;;;;;11.80;8.82;;;;;;;17.30;100.00;101613.47;5038664;28;20191;-73
2022/09/06 00:58:53;;;;;;;10.40;7.82;;;;;;;17.27;100.00;101610.09;5045173;28;20025;-73
2022/09/06 01:01:19;;;;;;;12.10;8.48;;;;;;;17.24;100.00;101597.91;5051809;28;20886;-73
2022/09/06 01:03:44;;;;;;;9.80;8.75;;;;;;;17.24;100.00;101597.03;5052431;28;20029;-73
2022/09/06 01:06:24;;;;;;;9.90;8.88;;;;;;;17.26;100.00;101582.00;5049757;28;20037;-73
2022/09/06 01:09:00;;;;;;;9.48;8.48;;;;;;;17.20;100.00;101582.25;5047626;28;20104;-73
2022/09/06 01:12:07;;;;;;;9.77;8.70;;;;;;;17.24;100.00;101574.19;5050674;28;20481;-73
2022/09/06 01:14:50;;;;;;;10.38;8.48;;;;;;;17.20;100.00;101576.97;5035998;28;20020;-72
2022/09/06 01:17:28;;;;;;;9.40;8.48;;;;;;;17.24;100.00;101557.53;5048389;28;20546;-72
2022/09/06 01:20:28;;;;;;;9.85;8.85;;;;;;;17.27;100.00;101547.72;5046169;28;20041;-73
2022/09/06 01:23:30;;;;;;;11.27;9.00;;;;;;;17.31;100.00;101530.00;5041565;28;20080;-73
2022/09/06 01:26:20;;;;;;;10.32;9.10;;;;;;;17.29;100.00;101513.38;5051084;28;20119;-73
2022/09/06 01:28:46;;;;;;;10.20;8.18;;;;;;;17.24;100.00;101499.56;5051821;28;20037;-73
2022/09/06 01:31:23;;;;;;;13.40;8.68;;;;;;;17.29;100.00;101481.75;5051426;28;20023;-73
2022/09/06 01:34:07;;;;;;;11.07;9.30;;;;;;;17.24;100.00;101475.84;5050713;28;20495;-73
2022/09/06 01:36:45;;;;;;;9.00;8.10;;;;;;;17.20;100.00;101472.47;5049024;28;20033;-73
2022/09/06 01:39:30;;;;;;;11.48;9.07;;;;;;;17.20;100.00;101461.06;5051568;28;20063;-73
2022/09/06 01:41:58;;;;;;;9.38;8.48;;;;;;;17.16;100.00;101448.94;5050043;28;20087;-73
2022/09/06 01:44:26;;;;;;;11.50;8.32;;;;;;;17.13;100.00;101438.50;5050916;28;20060;-73
2022/09/06 01:47:11;;;;;;;11.73;8.43;;;;;;;17.02;100.00;101437.19;5045318;28;20036;-73
2022/09/06 01:49:57;;;;;;;11.20;9.32;;;;;;;16.99;100.00;101410.13;5046484;28;20029;-73
2022/09/06 01:52:39;;;;;;;9.23;7.80;;;;;;;17.02;100.00;101394.19;5046284;28;20497;-73
2022/09/06 01:55:29;;;;;;;9.15;8.18;;;;;;;16.96;100.00;101376.84;5034514;28;20052;-73
2022/09/06 01:58:32;;;;;;;9.43;8.43;;;;;;;16.85;100.00;101374.66;5046926;28;20036;-73
2022/09/06 02:01:07;;;;;;;11.32;8.73;;;;;;;16.80;100.00;101386.31;5037702;28;20090;-72
2022/09/06 02:04:07;;;;;;;10.50;9.18;;;;;;;16.73;100.00;101462.00;5047170;28;20025;-73
2022/09/06 02:06:40;;;;;;;10.38;9.38;;;;;;;16.68;100.00;101471.88;5047972;28;20048;-73
2022/09/06 02:09:10;;;;;;;13.70;9.38;;;;;;;16.71;100.00;101420.88;5048287;28;20075;-73
2022/09/06 02:11:44;;;;;;;15.32;10.40;;;;;;;16.70;100.00;101445.47;5049511;28;20033;-73
2022/09/06 02:14:15;;;;;;;11.85;9.68;;;;;;;16.69;100.00;101438.50;5037337;28;20052;-73
2022/09/06 02:16:45;;;;;;;11.32;9.85;;;;;;;16.75;100.00;101436.53;5051006;28;20029;-73
2022/09/06 02:19:23;;;;;;;10.80;9.70;;;;;;;16.77;100.00;101426.78;5047453;28;20495;-73
2022/09/06 02:21:51;;;;;;;10.80;9.70;;;;;;;16.70;100.00;101424.41;5041583;28;20346;-73
2022/09/06 02:24:22;;;;;;;10.60;9.30;;;;;;;16.60;100.00;101427.41;5036972;28;20120;-73
2022/09/06 02:26:48;;;;;;;12.52;9.25;;;;;;;16.56;100.00;101432.88;5055285;28;20381;-73
2022/09/06 02:29:15;;;;;;;12.50;9.88;;;;;;;16.61;100.00;101429.16;5052599;28;20475;-73
2022/09/06 02:31:52;;;;;;;10.98;9.02;;;;;;;16.62;100.00;101433.50;5054317;28;20035;-72
2022/09/06 02:34:18;;;;;;;10.65;9.38;;;;;;;16.62;100.00;101430.00;5053162;28;20036;-73
2022/09/06 02:36:44;;;;;;;10.68;9.65;;;;;;;16.54;100.00;101425.00;5054538;28;20380;-73
2022/09/06 02:39:11;;;;;;;9.95;8.80;;;;;;;16.49;100.00;101416.47;5052906;28;20025;-73
2022/09/06 02:41:38;;;;;;;11.63;9.55;;;;;;;16.42;100.00;101415.00;5054526;28;20037;-73
2022/09/06 02:44:03;;;;;;;14.05;9.93;;;;;;;16.39;100.00;101418.59;5053471;28;20396;-73
2022/09/06 02:46:29;;;;;;;11.05;9.88;;;;;;;16.38;100.00;101419.50;5054453;28;20017;-72
2022/09/06 02:48:54;;;;;;;15.05;10.15;;;;;;;16.39;100.00;101431.75;5046465;28;20091;-73
2022/09/06 02:51:20;;;;;;;11.18;9.85;;;;;;;16.36;100.00;101429.22;5048930;28;20037;-73
2022/09/06 02:53:45;;;;;;;11.32;10.02;;;;;;;16.38;100.00;101429.16;5046968;28;20121;-72
2022/09/06 02:56:11;;;;;;;12.68;10.15;;;;;;;16.42;100.00;101428.16;5036471;28;20087;-73
2022/09/06 02:58:36;;;;;;;10.65;9.57;;;;;;;16.46;100.00;101432.38;5037469;28;20126;-72
2022/09/06 03:01:01;;;;;;;10.70;9.68;;;;;;;16.48;100.00;101433.19;5049320;28;20029;-73
2022/09/06 03:03:27;;;;;;;11.25;10.07;;;;;;;16.44;100.00;101435.97;5040973;28;20116;-72
2022/09/06 03:05:53;;;;;;;10.95;9.82;;;;;;;16.47;100.00;101435.84;5039231;28;20481;-72
2022/09/06 03:08:20;;;;;;;12.15;10.30;;;;;;;16.45;100.00;101443.81;5053970;28;20035;-72
2022/09/06 03:10:50;;;;;;;11.15;10.00;;;;;;;16.46;100.00;101440.25;5040886;28;20026;-72
2022/09/06 03:13:16;;;;;;;10.95;9.63;;;;;;;16.46;100.00;101447.31;5043228;28;20036;-72
2022/09/06 03:15:41;;;;;;;11.18;9.65;;;;;;;16.45;100.00;101433.28;5053054;28;20483;-73
2022/09/06 03:18:06;;;;;;;12.48;10.50;;;;;;;16.43;100.00;101437.75;5053985;28;20071;-72
2022/09/06 03:20:32;;;;;;;11.10;9.98;;;;;;;16.38;100.00;101437.06;5050005;28;20419;-72
2022/09/06 03:22:57;;;;;;;12.55;9.82;;;;;;;16.34;100.00;101435.47;5054409;28;20029;-72
2022/09/06 03:25:22;;;;;;;12.07;10.57;;;;;;;16.34;100.00;101441.56;5053226;28;20495;-72
2022/09/06 03:27:48;;;;;;;12.45;9.73;;;;;;;16.29;100.00;101440.06;5050776;28;20013;-72
2022/09/06 03:30:14;;;;;;;13.82;10.43;;;;;;;16.23;100.00;101445.53;5042263;28;20108;-72
2022/09/06 03:32:39;;;;;;;12.88;10.60;;;;;;;16.22;100.00;101443.81;5051180;28;20086;-72
2022/09/06 03:35:04;;;;;;;11.38;10.18;;;;;;;16.21;100.00;101437.69;5053440;28;20036;-72
2022/09/06 03:37:30;;;;;;;11.70;10.50;;;;;;;16.15;100.00;101440.56;5053910;28;20033;-72
2022/09/06 03:39:55;;;;;;;12.63;10.35;;;;;;;16.10;100.00;101442.50;5052500;28;20036;-72
2022/09/06 03:42:21;;;;;;;13.80;10.65;;;;;;;16.07;100.00;101429.47;5052393;28;20040;-72
2022/09/06 03:44:46;;;;;;;12.93;10.60;;;;;;;15.99;100.00;101428.88;5053062;28;20036;-72
2022/09/06 03:47:12;;;;;;;14.85;11.07;;;;;;;15.94;100.00;101425.56;5053064;28;20451;-73
2022/09/06 03:49:37;;;;;;;12.05;10.68;;;;;;;15.90;100.00;101435.34;5051776;28;20100;-72
2022/09/06 03:52:02;;;;;;;14.00;11.15;;;;;;;15.93;100.00;101429.97;5053724;28;20473;-72
2022/09/06 03:54:28;;;;;;;13.13;10.52;;;;;;;15.94;100.00;101429.06;5051318;28;20408;-72
2022/09/06 03:56:53;;;;;;;17.83;11.45;;;;;;;15.90;100.00;101438.84;5053257;28;20056;-73
2022/09/06 03:59:19;;;;;;;13.55;10.93;;;;;;;15.85;100.00;101434.66;5051208;28;20571;-72
2022/09/06 04:01:44;;;;;;;12.07;10.80;;;;;;;15.88;100.00;101445.06;5049541;28;20044;-73
2022/09/06 04:04:09;;;;;;;14.32;11.18;;;;;;;15.85;100.00;101448.66;5044459;28;20021;-73
2022/09/06 04:06:35;;;;;;;12.98;11.23;;;;;;;15.88;100.00;101448.53;5042542;28;20056;-73
2022/09/06 04:09:00;;;;;;;13.30;11.90;;;;;;;15.82;100.00;101448.75;5052191;28;20496;-72
2022/09/06 04:11:25;;;;;;;13.75;11.57;;;;;;;15.79;100.00;101455.91;5040595;28;20084;-72
2022/09/06 04:13:50;;;;;;;12.73;11.43;;;;;;;15.79;100.00;101458.53;5049011;28;20032;-72
2022/09/06 04:16:17;;;;;;;15.68;12.30;;;;;;;15.74;100.00;101453.44;5051806;28;20159;-73
2022/09/06 04:18:42;;;;;;;16.60;12.50;;;;;;;15.67;100.00;101463.31;5053116;28;20079;-73
2022/09/06 04:21:08;;;;;;;13.95;12.35;;;;;;;15.65;100.00;101467.72;5051350;28;20380;-72
2022/09/06 04:23:33;;;;;;;15.13;12.10;;;;;;;15.64;100.00;101467.78;5045254;28;20393;-72
2022/09/06 04:25:58;;;;;;;17.35;13.57;;;;;;;15.61;100.00;101466.13;5051802;28;20040;-72
2022/09/06 04:28:25;;;;;;;15.43;12.80;;;;;;;15.59;100.00;101465.28;5052724;28;20074;-73
2022/09/06 04:30:54;;;;;;;14.48;13.07;;;;;;;15.61;100.00;101460.84;5051134;28;20514;-72
2022/09/06 04:33:24;;;;;;;14.90;13.30;;;;;;;15.63;100.00;101464.31;5052313;28;20086;-72
2022/09/06 04:35:51;;;;;;;18.95;13.60;;;;;;;15.57;100.00;101461.88;5052569;28;20032;-72
2022/09/06 04:38:16;;;;;;;16.13;13.65;;;;;;;15.53;100.00;101468.16;5052324;28;20025;-72
2022/09/06 04:40:41;;;;;;;17.13;14.32;;;;;;;15.54;100.00;101461.97;5051613;28;20365;-72
2022/09/06 04:43:07;;;;;;;19.33;14.15;;;;;;;15.56;100.00;101468.03;5051836;28;20068;-72
2022/09/06 04:45:32;;;;;;;19.40;14.90;;;;;;;15.50;100.00;101465.63;5052219;28;20522;-72
2022/09/06 04:47:57;;;;;;;15.85;14.07;;;;;;;15.51;100.00;101471.75;5051994;28;20074;-72
2022/09/06 04:50:23;;;;;;;16.27;14.13;;;;;;;15.45;100.00;101472.81;5040278;28;20055;-72
2022/09/06 04:52:48;;;;;;;16.25;14.32;;;;;;;15.43;100.00;101474.63;5050148;28;20032;-72
2022/09/06 04:55:13;;;;;;;15.50;13.88;;;;;;;15.40;100.00;101472.09;5052185;28;20056;-72
2022/09/06 04:57:38;;;;;;;15.68;13.60;;;;;;;15.32;100.00;101477.59;5051784;28;20032;-72
2022/09/06 05:00:04;;;;;;;16.13;14.07;;;;;;;15.30;100.00;101478.56;5049046;28;20107;-72
2022/09/06 05:02:30;;;;;;;16.35;14.10;;;;;;;15.26;100.00;101474.31;5043953;28;20036;-72
2022/09/06 05:04:55;;;;;;;22.60;14.80;;;;;;;15.23;100.00;101468.25;5045741;28;20129;-72
2022/09/06 05:07:21;;;;;;;17.27;14.82;;;;;;;15.21;100.00;101459.59;5051238;28;20047;-72
2022/09/06 05:09:46;;;;;;;17.23;14.10;;;;;;;15.21;100.00;101456.94;5046795;28;20027;-72
2022/09/06 05:12:11;;;;;;;15.68;14.02;;;;;;;15.22;100.00;101455.19;5048616;28;20036;-72
2022/09/06 05:14:37;;;;;;;16.75;14.15;;;;;;;15.21;100.00;101461.34;5050041;28;20426;-72
2022/09/06 05:17:02;;;;;;;16.67;14.23;;;;;;;15.21;100.00;101458.72;5047965;28;20050;-72
2022/09/06 05:19:27;;;;;;;16.02;14.02;;;;;;;15.21;100.00;101451.69;5050921;28;20029;-72
2022/09/06 05:21:52;;;;;;;18.77;14.20;;;;;;;15.23;100.00;101462.16;5045967;28;20036;-72
2022/09/06 05:24:18;;;;;;;16.77;14.02;;;;;;;15.31;100.00;101462.75;5051188;28;20017;-72
2022/09/06 05:26:43;;;;;;;17.42;14.25;;;;;;;15.34;100.00;101459.19;5043493;28;20120;-72
2022/09/06 05:29:08;;;;;;;15.43;13.70;;;;;;;15.40;100.00;101467.72;5051577;28;20020;-72
2022/09/06 05:31:35;;;;;;;21.67;14.40;;;;;;;15.44;100.00;101471.09;5046458;28;20025;-72
2022/09/06 05:34:00;;;;;;;15.82;13.65;;;;;;;15.48;100.00;101459.56;5050601;28;20031;-72
2022/09/06 05:36:27;;;;;;;17.52;14.73;;;;;;;15.56;100.00;101465.41;5049410;28;20028;-72
2022/09/06 05:38:54;;;;;;;15.70;14.07;;;;;;;15.57;100.00;101472.41;5051710;28;20036;-72
2022/09/06 05:41:21;;;;;;;17.67;13.98;;;;;;;15.65;100.00;101465.09;5045254;28;20039;-73
2022/09/06 05:43:46;;;;;;;15.30;13.73;;;;;;;15.76;100.00;101469.16;5051849;28;20079;-72
2022/09/06 05:46:12;;;;;;;19.98;14.40;;;;;;;15.75;100.00;101470.06;5048830;28;20037;-72
2022/09/06 05:48:38;;;;;;;16.08;14.38;;;;;;;15.80;100.00;101471.63;5051441;28;20470;-72
2022/09/06 05:51:05;;;;;;;17.23;13.77;;;;;;;15.86;100.00;101473.19;5045941;28;20440;-72
2022/09/06 05:53:40;;;;;;;15.77;13.27;;;;;;;15.92;100.00;101475.56;5050922;28;20051;-72
2022/09/06 05:56:06;;;;;;;15.57;12.40;;;;;;;15.97;100.00;101478.06;5050052;28;20033;-72
2022/09/06 05:58:32;;;;;;;15.13;12.27;;;;;;;15.99;100.00;101479.72;5050431;28;20029;-72
2022/09/06 06:01:28;;;;;;;16.45;13.07;;;;;;;16.00;100.00;101473.53;5046772;28;20055;-72
2022/09/06 06:03:55;;;;;;;16.38;12.93;;;;;;;16.05;100.00;101474.22;5047018;28;20040;-72
2022/09/06 06:06:22;;;;;;;14.57;12.23;;;;;;;16.10;100.00;101467.03;5049339;28;20045;-72
2022/09/06 06:08:48;;;;;;;15.73;13.05;;;;;;;16.16;100.00;101465.97;5047727;28;20083;-72
2022/09/06 06:11:14;;;;;;;15.88;12.60;;;;;;;16.23;100.00;101477.13;5051000;28;20028;-72
2022/09/06 06:13:40;;;;;;;13.52;12.07;;;;;;;16.27;100.00;101473.44;5037934;28;20025;-72
2022/09/06 06:16:06;;;;;;;17.70;12.93;;;;;;;16.33;100.00;101476.72;5050444;28;20026;-72
2022/09/06 06:18:32;;;;;;;14.07;11.90;;;;;;;16.39;100.00;101478.25;5047856;28;20392;-72
2022/09/06 06:21:08;;;;;;;15.65;12.63;;;;;;;16.41;100.00;101476.41;5051209;28;20033;-72
2022/09/06 06:23:33;;;;;;;16.02;11.85;;;;;;;16.49;100.00;101469.09;5050057;28;20035;-72
2022/09/06 06:25:58;;;;;;;14.07;12.55;;;;;;;16.56;100.00;101467.09;5048805;28;20033;-72
2022/09/06 06:28:24;;;;;;;15.15;11.95;;;;;;;16.61;100.00;101465.13;5050173;28;20037;-72
2022/09/06 06:30:49;;;;;;;12.98;11.57;;;;;;;16.68;100.00;101468.41;5050751;28;20100;-72
2022/09/06 06:33:14;;;;;;;13.05;11.75;;;;;;;16.77;100.00;101462.78;5049613;28;20021;-72
2022/09/06 06:35:40;;;;;;;11.95;10.68;;;;;;;16.84;100.00;101464.28;5050270;28;20052;-72
2022/09/06 06:38:05;;;;;;;14.88;12.55;;;;;;;16.91;100.00;101457.00;5050589;28;20491;-72
2022/09/06 06:40:30;;;;;;;12.13;10.90;;;;;;;16.96;100.00;101458.50;5044313;28;20064;-72
2022/09/06 06:42:56;;;;;;;14.20;11.70;;;;;;;17.00;100.00;101456.59;5047768;28;20440;-73
2022/09/06 06:45:21;;;;;;;13.18;10.05;;;;;;;17.08;100.00;101451.88;5042529;28;20040;-74
2022/09/06 06:47:49;;;;;;;11.68;9.50;;;;;;;17.16;100.00;101452.41;5047602;28;20064;-74
2022/09/06 06:50:14;;;;;;;11.57;9.38;;;;;;;17.21;100.00;101460.16;5050238;28;20119;-74
2022/09/06 06:52:40;;;;;;;14.90;9.05;;;;;;;17.28;100.00;101458.97;5048036;28;20444;-74
2022/09/06 06:55:05;;;;;;;9.98;8.90;;;;;;;17.30;100.00;101457.13;5047703;28;20033;-74
2022/09/06 06:57:30;;;;;;;10.90;7.97;;;;;;;17.36;100.00;101459.50;5049943;28;20025;-74
2022/09/06 06:59:56;;;;;;;9.88;8.30;;;;;;;17.40;100.00;101453.19;5049051;28;20047;-74
2022/09/06 07:02:21;;;;;;;9.55;7.55;;;;;;;17.46;100.00;101454.69;5048475;28;20021;-73
2022/09/06 07:04:46;;;;;;;8.52;6.93;;;;;;;17.55;100.00;101452.53;5049353;28;20036;-74
2022/09/06 07:07:12;;;;;;;11.10;8.20;;;;;;;17.60;100.00;101449.69;5050267;28;20377;-74
2022/09/06 07:09:37;;;;;;;9.48;7.68;;;;;;;17.68;100.00;101450.22;5050771;28;20032;-74
2022/09/06 07:12:03;;;;;;;8.68;7.45;;;;;;;17.74;100.00;101442.03;5048660;28;20036;-74
2022/09/06 07:14:28;;;;;;;11.00;7.15;;;;;;;17.82;100.00;101444.38;5042906;28;20025;-75
2022/09/06 07:16:57;;;;;;;10.25;6.45;;;;;;;17.89;100.00;101443.19;5054231;28;20021;-74
2022/09/06 07:19:24;;;;;;;8.25;5.93;;;;;;;17.96;100.00;101449.91;5052482;28;20029;-74
2022/09/06 07:21:50;;;;;;;9.05;6.20;;;;;;;18.03;100.00;101447.84;5055633;28;20607;-74
2022/09/06 07:24:15;;;;;;;8.23;6.10;;;;;;;18.08;100.00;101447.63;5054461;28;20025;-75
2022/09/06 07:26:40;;;;;;;6.70;6.00;;;;;;;18.21;100.00;101452.28;5053705;28;20074;-75
2022/09/06 07:29:06;;;;;;;12.30;6.68;;;;;;;18.23;100.00;101445.16;5053957;28;20017;-76
2022/09/06 07:31:33;;;;;;;9.32;5.90;;;;;;;18.34;100.00;101447.28;5053297;28;20524;-75
2022/09/06 07:33:58;;;;;;;6.63;5.72;;;;;;;18.42;100.00;101453.06;5054315;28;20061;-75
2022/09/06 07:36:23;;;;;;;7.90;5.82;;;;;;;18.50;100.00;101450.06;5053416;28;20044;-75
2022/09/06 07:38:50;;;;;;;7.25;6.05;;;;;;;18.56;100.00;101468.25;5053671;28;20067;-75
2022/09/06 07:41:17;;;;;;;7.90;4.95;;;;;;;18.67;100.00;101460.72;5053031;28;20547;-76
2022/09/06 07:43:42;;;;;;;13.63;5.63;;;;;;;18.72;100.00;101457.88;5053886;28;20357;-75
2022/09/06 07:46:16;;;;;;;7.72;5.25;;;;;;;18.78;100.00;101457.59;5050321;28;20032;-75
2022/09/06 07:48:43;;;;;;;7.78;4.45;;;;;;;18.91;99.21;101453.41;5053621;28;20540;-73
2022/09/06 07:51:15;;;;;;;6.57;4.35;;;;;;;19.03;95.42;101453.75;5053303;28;20107;-73
2022/09/06 07:53:42;;;;;;;7.57;4.50;;;;;;;19.10;96.20;101449.88;5053259;28;20020;-73
2022/09/06 07:56:10;;;;;;;7.20;4.18;;;;;;;19.20;94.93;101447.63;5045368;28;20053;-73
2022/09/06 07:58:36;;;;;;;4.47;3.90;;;;;;;19.29;97.41;101444.50;5052787;28;20028;-73
2022/09/06 08:01:18;;;;;;;5.82;4.40;;;;;;;19.39;98.77;101437.81;5052528;28;20464;-73
2022/09/06 08:03:45;;;;;;;7.00;4.45;;;;;;;19.47;95.52;101432.16;5039297;28;20059;-73
2022/09/06 08:06:11;;;;;;;6.07;4.00;;;;;;;19.58;93.65;101433.31;5053307;28;20029;-73
2022/09/06 08:08:36;;;;;;;5.38;3.78;;;;;;;19.73;91.83;101438.78;5050638;28;20025;-73
2022/09/06 08:11:02;;;;;;;7.32;3.53;;;;;;;19.80;89.31;101440.16;5050630;28;20101;-74
2022/09/06 08:13:28;;;;;;;6.95;3.42;;;;;;;19.87;87.62;101439.75;5050551;28;20107;-71
2022/09/06 08:15:58;;;;;;;5.57;3.60;;;;;;;19.90;92.53;101445.81;5048047;28;20361;-71
2022/09/06 08:18:23;;;;;;;4.70;3.45;;;;;;;19.78;92.83;101437.63;5052559;28;20108;-71
2022/09/06 08:20:48;;;;;;;6.18;3.35;;;;;;;19.75;89.03;101439.53;5052568;28;20048;-71
2022/09/06 08:23:14;;;;;;;4.38;3.15;;;;;;;19.85;90.08;101444.28;5052127;28;20021;-71
2022/09/06 08:25:39;;;;;;;4.97;2.65;;;;;;;19.86;87.01;101447.78;5052534;28;20124;-71
2022/09/06 08:28:04;;;;;;;4.57;3.10;;;;;;;19.84;85.26;101455.78;5052386;28;20035;-71
2022/09/06 08:30:30;;;;;;;5.22;3.10;;;;;;;19.86;84.79;101463.66;5052488;28;20380;-71
2022/09/06 08:32:55;;;;;;;4.22;3.15;;;;;;;19.83;89.29;101463.81;5053065;28;20483;-71
2022/09/06 08:35:21;;;;;;;4.10;2.88;;;;;;;20.02;88.32;101455.78;5052107;28;20078;-71
2022/09/06 08:37:47;;;;;;;4.32;3.10;;;;;;;20.12;86.52;101446.41;5052673;28;20025;-71
2022/09/06 08:40:18;;;;;;;4.72;3.15;;;;;;;20.28;86.97;101444.63;5052650;28;20092;-71
2022/09/06 08:42:44;;;;;;;5.30;3.50;;;;;;;20.45;85.45;101446.34;5051766;28;20514;-71
2022/09/06 08:45:18;;;;;;;5.63;3.67;;;;;;;20.63;87.32;101447.13;5052436;28;20112;-71
2022/09/06 08:47:44;;;;;;;3.15;2.75;;;;;;;20.75;84.94;101443.81;5052930;28;20021;-71
2022/09/06 08:50:10;;;;;;;5.60;2.92;;;;;;;20.87;82.12;101446.72;5051819;28;20120;-71
2022/09/06 08:52:46;;;;;;;6.15;3.15;;;;;;;20.96;83.34;101443.50;5052429;28;20111;-71
2022/09/06 08:55:22;;;;;;;6.75;3.72;;;;;;;21.04;83.52;101436.84;5052369;28;20029;-71
2022/09/06 08:58:17;;;;;;;8.57;3.17;;;;;;;21.17;81.94;101444.94;5051581;28;20465;-71
2022/09/06 09:00:50;;;;;;;4.43;3.30;;;;;;;21.27;79.33;101435.50;5052706;28;20064;-71
2022/09/06 09:03:20;;;;;;;7.60;2.95;;;;;;;21.32;79.90;101431.69;5037150;28;20424;-71
2022/09/06 09:05:51;;;;;;;3.28;2.85;;;;;;;21.49;78.25;101439.56;5052237;28;20029;-71
2022/09/06 09:08:24;;;;;;;7.13;2.80;;;;;;;21.66;78.22;101451.81;5051702;28;20017;-71
2022/09/06 09:11:10;;;;;;;;;;;;;;;21.72;81.34;101443.47;5052215;28;20021;-71
2022/09/06 09:13:53;;;;;;;4.82;2.50;;;;;;;21.79;78.88;101430.69;5051642;28;20003;-71
2022/09/06 09:16:19;;;;;;;5.27;3.07;;;;;;;21.86;75.28;101421.41;5051753;28;20025;-71
2022/09/06 09:18:49;;;;;;;5.35;2.80;;;;;;;21.91;74.83;101421.97;5051255;28;20326;-71
2022/09/06 09:21:19;;;;;;;2.95;2.40;;;;;;;21.92;76.06;101427.19;5052196;28;20035;-71
2022/09/06 09:23:51;;;;;;;5.82;3.17;;;;;;;21.99;76.15;101419.69;5052526;28;20055;-71
2022/09/06 09:26:16;;;;;;;5.10;3.00;;;;;;;22.10;76.30;101426.97;5050753;28;20031;-71
2022/09/06 09:29:04;;;;;;;5.95;3.10;;;;;;;22.18;78.63;101430.06;5051969;28;20062;-71
2022/09/06 09:31:37;;;;;;;6.30;3.20;;;;;;;22.21;74.52;101429.88;5051570;28;20017;-71
2022/09/06 09:34:03;;;;;;;7.00;3.33;;;;;;;22.31;75.90;101436.28;5051358;28;20036;-71
2022/09/06 09:36:30;;;;;;;9.73;3.22;;;;;;;22.33;75.14;101433.53;5051558;28;20017;-71
2022/09/06 09:38:57;;;;;;;4.10;2.97;;;;;;;22.44;74.48;101437.22;5051140;28;20083;-71
2022/09/06 09:41:33;;;;;;;6.38;3.10;;;;;;;22.57;75.18;101434.63;5050833;28;20021;-72
2022/09/06 09:44:04;;;;;;;4.38;2.88;;;;;;;22.69;73.63;101430.31;5051612;28;20469;-71
2022/09/06 09:46:35;;;;;;;4.82;3.10;;;;;;;22.76;71.90;101428.97;5050797;28;20140;-71
2022/09/06 09:49:10;;;;;;;5.28;3.50;;;;;;;22.83;72.45;101429.44;5051533;28;20021;-71
2022/09/06 09:52:02;;;;;;;5.82;3.50;;;;;;;22.87;70.99;101422.94;5051431;28;20391;-71
2022/09/06 09:54:34;;;;;;;5.50;3.35;;;;;;;22.84;72.60;101421.34;5048759;28;20036;-71
2022/09/06 09:56:59;;;;;;;3.60;2.90;;;;;;;22.99;71.00;101426.63;5040122;28;20082;-71
2022/09/06 09:59:27;;;;;;;4.80;3.30;;;;;;;23.08;69.96;101426.00;5050567;28;20036;-72
2022/09/06 10:01:56;;;;;;;7.43;3.60;;;;;;;23.20;70.34;101421.69;5056853;28;20049;-72
2022/09/06 10:04:45;;;;;;;6.28;3.22;;;;;;;23.28;71.32;101419.34;5041042;28;20031;-71
2022/09/06 10:07:17;;;;;;;5.95;3.70;;;;;;;23.32;69.41;101426.19;5049159;28;20317;-71
2022/09/06 10:09:46;;;;;;;5.60;3.28;;;;;;;23.46;70.55;101439.38;5056287;28;20024;-71
2022/09/06 10:12:28;;;;;;;6.47;3.35;;;;;;;23.57;72.62;101447.47;5066347;28;20033;-71
2022/09/06 10:14:54;;;;;;;6.82;3.70;;;;;;;23.62;68.79;101441.84;5052511;28;20029;-70
2022/09/06 10:17:26;;;;;;;5.20;3.97;;;;;;;23.75;67.00;101439.22;5050788;28;20795;-72
2022/09/06 10:19:52;;;;;;;4.75;3.55;;;;;;;23.82;69.31;101441.34;5051463;28;20028;-72
2022/09/06 10:22:49;;;;;;;5.45;3.45;;;;;;;23.94;68.36;101444.13;5053461;28;20036;-73
2022/09/06 10:25:33;;;;;;;7.90;4.13;;;;;;;24.10;67.94;101441.22;5050289;28;20051;-73
2022/09/06 10:28:29;;;;;;;4.65;3.60;;;;;;;24.27;67.27;101443.53;5050649;28;20052;-73
2022/09/06 10:31:24;;;;;;;6.55;3.65;;;;;;;24.34;64.49;101443.94;5050920;28;20465;-73
2022/09/06 10:34:01;;;;;;;5.55;3.22;;;;;;;24.50;65.25;101432.09;5050756;28;20051;-73
2022/09/06 10:36:33;;;;;;;3.80;3.00;;;;;;;24.70;65.71;101427.97;5053703;28;20025;-73
2022/09/06 10:39:19;;;;;;;5.75;3.22;;;;;;;24.86;65.25;101427.69;5062051;28;20100;-75
2022/09/06 10:42:22;;;;;;;6.28;4.03;;;;;;;25.13;65.43;101435.47;5059612;28;20399;-74
2022/09/06 10:45:28;;;;;;;7.20;4.30;;;;;;;25.24;62.85;101429.31;5037791;28;20033;-74
2022/09/06 10:48:01;;;;;;;5.78;3.88;;;;;;;25.28;61.40;101420.13;5042323;28;20455;-74
2022/09/06 10:50:48;;;;;;;6.35;4.20;;;;;;;25.46;61.99;101432.03;5053885;28;20029;-74
2022/09/06 10:53:54;;;;;;;6.82;4.72;;;;;;;25.63;61.32;101432.53;5054086;28;20468;-75
2022/09/06 10:56:46;;;;;;;6.13;4.00;;;;;;;25.57;61.14;101419.66;5050507;28;20090;-75
2022/09/06 10:59:20;;;;;;;5.63;4.07;;;;;;;25.55;57.79;101422.47;5054248;28;20039;-75
2022/09/06 11:01:57;;;;;;;5.75;3.97;;;;;;;25.74;58.81;101423.72;5050901;28;20288;-74
2022/09/06 11:04:30;;;;;;;6.60;3.90;;;;;;;25.95;59.59;101421.19;5040361;28;20072;-73
2022/09/06 11:07:01;;;;;;;8.52;4.15;;;;;;;26.06;56.82;101422.06;5051674;28;20025;-73
2022/09/06 11:09:26;;;;;;;5.55;4.00;;;;;;;26.12;57.24;101421.53;5054374;28;20116;-72
2022/09/06 11:12:21;;;;;;;7.17;3.93;;;;;;;26.21;57.78;101427.97;5053826;28;20108;-73
2022/09/06 11:14:46;;;;;;;4.30;3.22;;;;;;;26.32;57.66;101435.13;5047016;28;20068;-73
2022/09/06 11:17:35;;;;;;;4.80;3.40;;;;;;;26.46;57.00;101440.22;5038267;28;20037;-73
2022/09/06 11:20:20;;;;;;;7.82;3.70;;;;;;;26.54;56.87;101443.13;5045616;28;20496;-73
2022/09/06 11:23:24;;;;;;;5.88;3.42;;;;;;;26.69;54.25;101440.22;5052215;28;20048;-73
2022/09/06 11:25:56;;;;;;;;;;;;;;;26.78;56.84;101453.66;5011661;28;20060;-73
2022/09/06 11:28:33;;;;;;;7.63;3.23;;;;;;;26.90;55.10;101445.59;5042791;28;19922;-73